createdAt,value
2022-10-05T00:00:03.879Z,11.79
2022-10-05T00:01:30.186Z,11.79
2022-10-05T00:02:32.300Z,11.78
2022-10-05T00:03:36.456Z,11.77
2022-10-05T00:04:38.304Z,11.78
2022-10-05T00:05:40.108Z,11.78
2022-10-05T00:07:08.430Z,11.78
2022-10-05T00:08:10.177Z,11.76
2022-10-05T00:09:16.635Z,11.72
2022-10-05T00:10:18.817Z,11.70
2022-10-05T00:11:20.656Z,11.70
2022-10-05T00:12:23.551Z,11.71
2022-10-05T00:13:29.131Z,11.70
2022-10-05T00:14:34.386Z,11.69
2022-10-05T00:15:36.028Z,11.71
2022-10-05T00:16:37.662Z,11.71
2022-10-05T00:17:41.272Z,11.73
2022-10-05T00:18:48.059Z,11.73
2022-10-05T00:19:53.465Z,11.74
2022-10-05T00:20:56.337Z,11.75
2022-10-05T00:22:33.112Z,11.76
2022-10-05T00:23:34.791Z,11.77
2022-10-05T00:24:36.527Z,11.77
2022-10-05T00:25:38.379Z,11.78
2022-10-05T00:26:39.929Z,11.79
2022-10-05T00:27:41.961Z,11.79
2022-10-05T00:28:43.737Z,11.79
2022-10-05T00:29:46.569Z,11.78
2022-10-05T00:30:48.284Z,11.79
2022-10-05T00:31:50.258Z,11.80
2022-10-05T00:32:56.109Z,11.81
2022-10-05T00:34:01.261Z,11.82
2022-10-05T00:35:03.248Z,11.80
2022-10-05T00:36:07.119Z,11.78
2022-10-05T00:37:09.193Z,11.78
2022-10-05T00:38:10.923Z,11.77
2022-10-05T00:39:13.334Z,11.75
2022-10-05T00:40:25.813Z,11.72
2022-10-05T00:41:52.861Z,11.70
2022-10-05T00:43:03.111Z,11.69
2022-10-05T00:44:15.258Z,11.69
2022-10-05T00:45:37.025Z,11.68
2022-10-05T00:47:31.019Z,11.64
2022-10-05T00:48:45.379Z,11.53
2022-10-05T00:50:08.113Z,11.47
2022-10-05T00:51:27.618Z,11.41
2022-10-05T00:52:46.060Z,11.39
2022-10-05T00:54:14.717Z,11.39
2022-10-05T00:55:45.696Z,11.37
2022-10-05T00:56:53.525Z,11.34
2022-10-05T00:58:25.734Z,11.33
2022-10-05T00:59:36.301Z,11.32
2022-10-05T01:00:45.142Z,11.30
2022-10-05T01:02:23.874Z,11.25
2022-10-05T01:03:37.831Z,11.20
2022-10-05T01:04:59.444Z,11.17
2022-10-05T01:06:09.657Z,11.16
2022-10-05T01:07:35.246Z,11.14
2022-10-05T01:08:51.826Z,11.10
2022-10-05T01:10:17.768Z,11.10
2022-10-05T01:11:46.857Z,11.11
2022-10-05T01:12:55.289Z,11.11
2022-10-05T01:14:15.582Z,11.10
2022-10-05T01:15:30.853Z,11.11
2022-10-05T01:17:04.351Z,11.10
2022-10-05T01:18:26.409Z,11.08
2022-10-05T01:19:59.826Z,11.06
2022-10-05T01:21:13.385Z,11.07
2022-10-05T01:22:36.585Z,11.07
2022-10-05T01:23:41.192Z,11.06
2022-10-05T01:25:04.291Z,11.05
2022-10-05T01:26:45.569Z,11.06
2022-10-05T01:28:16.174Z,11.05
2022-10-05T01:29:23.658Z,11.03
2022-10-05T01:31:20.544Z,11.00
2022-10-05T01:32:49.293Z,10.98
2022-10-05T01:34:04.236Z,10.98
2022-10-05T01:35:28.145Z,10.96
2022-10-05T01:37:07.016Z,10.95
2022-10-05T01:38:39.312Z,10.92
2022-10-05T01:40:19.894Z,10.91
2022-10-05T01:41:40.505Z,10.89
2022-10-05T01:42:44.760Z,10.86
2022-10-05T01:43:57.389Z,10.81
2022-10-05T01:45:14.193Z,10.79
2022-10-05T01:46:29.835Z,10.79
2022-10-05T01:48:03.550Z,10.79
2022-10-05T01:49:42.464Z,10.78
2022-10-05T01:51:16.206Z,10.79
2022-10-05T01:52:38.856Z,10.78
2022-10-05T01:53:40.770Z,10.79
2022-10-05T01:54:48.484Z,10.78
2022-10-05T01:55:56.259Z,10.77
2022-10-05T01:57:03.496Z,10.77
2022-10-05T01:58:17.163Z,10.76
2022-10-05T01:59:51.949Z,10.74
2022-10-05T02:01:04.217Z,10.72
2022-10-05T02:02:17.609Z,10.71
2022-10-05T02:03:27.166Z,10.71
2022-10-05T02:06:15.055Z,10.69
2022-10-05T02:07:32.042Z,10.69
2022-10-05T02:08:45.814Z,10.69
2022-10-05T02:09:53.481Z,10.67
2022-10-05T02:11:03.005Z,10.67
2022-10-05T02:12:15.411Z,10.65
2022-10-05T02:13:24.841Z,10.64
2022-10-05T02:14:32.639Z,10.64
2022-10-05T02:15:45.667Z,10.62
2022-10-05T02:16:50.763Z,10.60
2022-10-05T02:17:58.926Z,10.59
2022-10-05T02:19:41.621Z,10.58
2022-10-05T02:20:46.582Z,10.57
2022-10-05T02:22:03.967Z,10.54
2022-10-05T02:23:21.668Z,10.51
2022-10-05T02:24:29.114Z,10.47
2022-10-05T02:25:34.467Z,10.45
2022-10-05T02:26:38.657Z,10.43
2022-10-05T02:28:03.808Z,10.43
2022-10-05T02:29:10.942Z,10.42
2022-10-05T02:30:16.565Z,10.42
2022-10-05T02:31:34.759Z,10.40
2022-10-05T02:33:02.033Z,10.39
2022-10-05T02:34:28.549Z,10.39
2022-10-05T02:35:38.730Z,10.38
2022-10-05T02:36:40.471Z,10.37
2022-10-05T02:37:56.628Z,10.35
2022-10-05T02:39:06.539Z,10.35
2022-10-05T02:40:27.023Z,10.32
2022-10-05T02:41:46.954Z,10.30
2022-10-05T02:43:19.739Z,10.27
2022-10-05T02:44:49.767Z,10.25
2022-10-05T02:46:06.376Z,10.26
2022-10-05T02:47:32.940Z,10.24
2022-10-05T02:48:43.498Z,10.25
2022-10-05T02:50:03.184Z,10.23
2022-10-05T02:51:15.733Z,10.22
2022-10-05T02:52:25.451Z,10.20
2022-10-05T02:53:33.620Z,10.17
2022-10-05T02:55:15.180Z,10.17
2022-10-05T02:56:32.874Z,10.16
2022-10-05T02:57:42.021Z,10.16
2022-10-05T02:58:51.840Z,10.14
2022-10-05T03:00:08.793Z,10.15
2022-10-05T03:01:23.155Z,10.16
2022-10-05T03:02:56.008Z,10.16
2022-10-05T03:04:24.017Z,10.16
2022-10-05T03:05:31.577Z,10.15
2022-10-05T03:06:41.607Z,10.15
2022-10-05T03:07:55.870Z,10.17
2022-10-05T03:09:05.195Z,10.18
2022-10-05T03:10:34.342Z,10.19
2022-10-05T03:11:54.859Z,10.20
2022-10-05T03:13:16.045Z,10.21
2022-10-05T03:14:37.287Z,10.20
2022-10-05T03:16:20.204Z,10.21
2022-10-05T03:17:28.049Z,10.20
2022-10-05T03:18:35.708Z,10.19
2022-10-05T03:20:08.075Z,10.19
2022-10-05T03:21:12.872Z,10.17
2022-10-05T03:22:32.812Z,10.13
2022-10-05T03:24:07.342Z,10.13
2022-10-05T03:25:27.373Z,10.13
2022-10-05T03:26:49.458Z,10.12
2022-10-05T03:28:00.707Z,10.09
2022-10-05T03:29:14.246Z,10.08
2022-10-05T03:30:22.704Z,10.08
2022-10-05T03:31:41.698Z,10.08
2022-10-05T03:32:52.584Z,10.06
2022-10-05T03:34:05.679Z,10.03
2022-10-05T03:35:13.181Z,10.03
2022-10-05T03:36:17.785Z,10.03
2022-10-05T03:37:33.200Z,10.02
2022-10-05T03:38:56.703Z,10.01
2022-10-05T03:40:19.779Z,9.99
2022-10-05T03:41:54.206Z,9.99
2022-10-05T03:43:24.587Z,9.99
2022-10-05T03:44:32.298Z,10.00
2022-10-05T03:45:55.923Z,10.01
2022-10-05T03:46:57.515Z,10.00
2022-10-05T03:48:27.936Z,9.98
2022-10-05T03:49:32.714Z,9.98
2022-10-05T03:51:14.579Z,9.98
2022-10-05T03:52:28.295Z,9.97
2022-10-05T03:53:37.895Z,9.97
2022-10-05T03:55:11.420Z,9.97
2022-10-05T03:56:25.122Z,9.97
2022-10-05T03:57:31.273Z,9.95
2022-10-05T03:58:41.202Z,9.92
2022-10-05T04:00:02.159Z,9.92
2022-10-05T04:01:21.699Z,9.92
2022-10-05T04:02:28.852Z,9.92
2022-10-05T04:03:43.979Z,9.91
2022-10-05T04:04:59.735Z,9.90
2022-10-05T04:06:10.582Z,9.90
2022-10-05T04:07:25.150Z,9.90
2022-10-05T04:08:45.386Z,9.90
2022-10-05T04:09:52.483Z,9.91
2022-10-05T04:10:57.298Z,9.91
2022-10-05T04:12:23.085Z,9.92
2022-10-05T04:13:39.612Z,9.91
2022-10-05T04:14:46.576Z,9.91
2022-10-05T04:16:05.426Z,9.91
2022-10-05T04:17:17.508Z,9.91
2022-10-05T04:18:33.759Z,9.90
2022-10-05T04:19:49.842Z,9.90
2022-10-05T04:20:57.740Z,9.89
2022-10-05T04:22:15.011Z,9.88
2022-10-05T04:23:28.596Z,9.86
2022-10-05T04:24:53.503Z,9.82
2022-10-05T04:26:04.221Z,9.82
2022-10-05T04:27:23.811Z,9.85
2022-10-05T04:28:37.855Z,9.87
2022-10-05T04:29:47.640Z,9.91
2022-10-05T04:30:52.504Z,9.94
2022-10-05T04:32:21.118Z,9.97
2022-10-05T04:33:23.091Z,10.02
2022-10-05T04:34:46.466Z,10.05
2022-10-05T04:36:16.040Z,10.12
2022-10-05T04:37:28.124Z,10.18
2022-10-05T04:38:35.543Z,10.22
2022-10-05T04:40:03.096Z,10.26
2022-10-05T04:41:38.598Z,10.31
2022-10-05T04:43:12.645Z,10.37
2022-10-05T04:44:38.418Z,10.42
2022-10-05T04:45:56.071Z,10.47
2022-10-05T04:47:18.300Z,10.52
2022-10-05T04:48:53.818Z,10.57
2022-10-05T04:49:56.286Z,10.62
2022-10-05T04:50:58.169Z,10.65
2022-10-05T04:52:18.640Z,10.68
2022-10-05T04:53:35.330Z,10.73
2022-10-05T04:54:46.062Z,10.77
2022-10-05T04:55:54.009Z,10.81
2022-10-05T04:57:03.019Z,10.85
2022-10-05T04:58:40.056Z,10.89
2022-10-05T05:00:09.040Z,10.95
2022-10-05T05:01:37.510Z,10.98
2022-10-05T05:02:46.845Z,11.01
2022-10-05T05:03:55.297Z,11.04
2022-10-05T05:05:18.822Z,11.06
2022-10-05T05:06:41.707Z,11.10
2022-10-05T05:08:05.071Z,11.14
2022-10-05T05:09:34.571Z,11.18
2022-10-05T05:11:15.040Z,11.21
2022-10-05T05:12:36.534Z,11.25
2022-10-05T05:14:29.178Z,11.26
2022-10-05T05:15:43.560Z,11.29
2022-10-05T05:16:55.085Z,11.32
2022-10-05T05:17:56.784Z,11.35
2022-10-05T05:19:10.550Z,11.37
2022-10-05T05:20:32.931Z,11.40
2022-10-05T05:22:03.721Z,11.43
2022-10-05T05:23:06.949Z,11.46
2022-10-05T05:24:44.589Z,11.47
2022-10-05T05:26:09.159Z,11.50
2022-10-05T05:27:24.025Z,11.52
2022-10-05T05:28:34.479Z,11.54
2022-10-05T05:30:06.464Z,11.55
2022-10-05T05:31:19.250Z,11.58
2022-10-05T05:33:05.890Z,11.59
2022-10-05T05:34:48.427Z,11.61
2022-10-05T05:36:23.408Z,11.63
2022-10-05T05:38:02.000Z,11.65
2022-10-05T05:39:12.945Z,11.67
2022-10-05T05:40:19.100Z,11.67
2022-10-05T05:41:30.069Z,11.69
2022-10-05T05:42:47.829Z,11.71
2022-10-05T05:44:19.884Z,11.72
2022-10-05T05:45:41.180Z,11.74
2022-10-05T05:47:03.378Z,11.76
2022-10-05T05:48:21.032Z,11.77
2022-10-05T05:50:05.578Z,11.80
2022-10-05T05:51:22.284Z,11.81
2022-10-05T05:52:30.043Z,11.83
2022-10-05T05:53:45.276Z,11.86
2022-10-05T05:55:29.054Z,11.88
2022-10-05T05:56:37.595Z,11.90
2022-10-05T05:58:18.654Z,11.91
2022-10-05T05:59:45.082Z,11.95
2022-10-05T06:00:54.469Z,11.96
2022-10-05T06:02:07.724Z,11.97
2022-10-05T06:03:22.092Z,11.99
2022-10-05T06:04:56.371Z,12.01
2022-10-05T06:06:03.135Z,12.04
2022-10-05T06:07:05.976Z,12.06
2022-10-05T06:08:22.981Z,12.08
2022-10-05T06:09:30.488Z,12.11
2022-10-05T06:10:56.900Z,12.15
2022-10-05T06:12:08.067Z,12.20
2022-10-05T06:13:19.940Z,12.23
2022-10-05T06:14:31.835Z,12.27
2022-10-05T06:15:43.244Z,12.29
2022-10-05T06:17:09.091Z,12.32
2022-10-05T06:18:14.828Z,12.33
2022-10-05T06:19:20.703Z,12.34
2022-10-05T06:20:51.176Z,12.35
2022-10-05T06:22:02.060Z,12.36
2022-10-05T06:23:11.710Z,12.37
2022-10-05T06:24:20.395Z,12.38
2022-10-05T06:25:43.891Z,12.39
2022-10-05T06:26:57.713Z,12.40
2022-10-05T06:28:10.568Z,12.42
2022-10-05T06:29:23.810Z,12.44
2022-10-05T06:30:39.553Z,12.46
2022-10-05T06:32:02.146Z,12.47
2022-10-05T06:33:20.705Z,12.50
2022-10-05T06:34:43.834Z,12.52
2022-10-05T06:36:32.629Z,12.55
2022-10-05T06:38:00.403Z,12.55
2022-10-05T06:39:25.153Z,12.57
2022-10-05T06:40:42.866Z,12.59
2022-10-05T06:42:05.710Z,12.61
2022-10-05T06:43:48.166Z,12.61
2022-10-05T06:45:11.114Z,12.60
2022-10-05T06:46:42.118Z,12.61
2022-10-05T06:48:35.077Z,12.64
2022-10-05T06:50:01.308Z,12.66
2022-10-05T06:51:39.992Z,12.67
2022-10-05T06:53:07.927Z,12.70
2022-10-05T06:54:15.766Z,12.71
2022-10-05T06:55:32.024Z,12.72
2022-10-05T06:56:52.726Z,12.73
2022-10-05T06:58:25.770Z,12.75
2022-10-05T06:59:43.779Z,12.76
2022-10-05T07:00:53.582Z,12.79
2022-10-05T07:01:58.645Z,12.80
2022-10-05T07:03:10.115Z,12.80
2022-10-05T07:04:24.019Z,12.81
2022-10-05T07:05:50.371Z,12.83
2022-10-05T07:06:57.237Z,12.85
2022-10-05T07:08:07.604Z,12.86
2022-10-05T07:09:24.595Z,12.89
2022-10-05T07:10:52.635Z,12.91
2022-10-05T07:12:23.067Z,12.92
2022-10-05T07:13:55.781Z,12.95
2022-10-05T07:14:57.509Z,12.97
2022-10-05T07:16:22.707Z,13.00
2022-10-05T07:17:36.733Z,13.03
2022-10-05T07:19:16.500Z,13.05
2022-10-05T07:20:50.125Z,13.07
2022-10-05T07:22:24.986Z,13.09
2022-10-05T07:23:48.571Z,13.11
2022-10-05T07:25:18.966Z,13.13
2022-10-05T07:26:30.435Z,13.16
2022-10-05T07:27:41.808Z,13.18
2022-10-05T07:29:12.162Z,13.21
2022-10-05T07:30:15.465Z,13.23
2022-10-05T07:31:23.874Z,13.24
2022-10-05T07:32:54.872Z,13.24
2022-10-05T07:34:22.597Z,13.25
2022-10-05T07:36:05.510Z,13.25
2022-10-05T07:37:32.217Z,13.25
2022-10-05T07:38:53.708Z,13.26
2022-10-05T07:40:18.951Z,13.27
2022-10-05T07:41:53.475Z,13.26
2022-10-05T07:43:05.528Z,13.25
2022-10-05T07:44:27.267Z,13.23
2022-10-05T07:46:00.970Z,13.23
2022-10-05T07:47:25.562Z,13.23
2022-10-05T07:48:44.550Z,13.24
2022-10-05T07:50:13.659Z,13.25
2022-10-05T07:51:27.656Z,13.28
2022-10-05T07:52:51.891Z,13.30
2022-10-05T07:54:13.000Z,13.33
2022-10-05T07:55:21.376Z,13.36
2022-10-05T07:56:37.793Z,13.40
2022-10-05T07:57:56.534Z,13.44
2022-10-05T07:59:07.181Z,13.48
2022-10-05T08:00:47.793Z,13.52
2022-10-05T08:01:58.684Z,13.56
2022-10-05T08:03:10.844Z,13.59
2022-10-05T08:04:23.943Z,13.62
2022-10-05T08:05:27.803Z,13.66
2022-10-05T08:06:40.209Z,13.68
2022-10-05T08:07:42.534Z,13.73
2022-10-05T08:08:56.817Z,13.77
2022-10-05T08:09:58.698Z,13.82
2022-10-05T08:11:12.079Z,13.85
2022-10-05T08:12:23.485Z,13.88
2022-10-05T08:13:38.840Z,13.91
2022-10-05T08:14:52.299Z,13.95
2022-10-05T08:16:00.050Z,14.01
2022-10-05T08:17:10.799Z,14.06
2022-10-05T08:18:23.993Z,14.10
2022-10-05T08:19:34.155Z,14.14
2022-10-05T08:20:51.399Z,14.19
2022-10-05T08:22:05.607Z,14.24
2022-10-05T08:23:25.046Z,14.27
2022-10-05T08:24:29.614Z,14.29
2022-10-05T08:25:44.776Z,14.31
2022-10-05T08:26:51.024Z,14.34
2022-10-05T08:28:04.301Z,14.37
2022-10-05T08:29:27.061Z,14.41
2022-10-05T08:30:34.972Z,14.43
2022-10-05T08:31:39.567Z,14.44
2022-10-05T08:33:15.221Z,14.43
2022-10-05T08:34:34.045Z,14.44
2022-10-05T08:35:43.355Z,14.48
2022-10-05T08:36:58.051Z,14.49
2022-10-05T08:38:16.132Z,14.51
2022-10-05T08:39:20.770Z,14.55
2022-10-05T08:40:41.548Z,14.56
2022-10-05T08:42:01.111Z,14.60
2022-10-05T08:43:21.393Z,14.63
2022-10-05T08:44:37.295Z,14.67
2022-10-05T08:46:21.333Z,14.72
2022-10-05T08:47:36.612Z,14.79
2022-10-05T08:49:03.862Z,14.83
2022-10-05T08:51:01.318Z,14.87
2022-10-05T08:52:28.583Z,14.91
2022-10-05T08:53:41.717Z,14.94
2022-10-05T08:55:10.332Z,14.97
2022-10-05T08:56:30.716Z,14.98
2022-10-05T08:57:41.155Z,14.99
2022-10-05T08:59:07.071Z,15.01
2022-10-05T09:00:31.930Z,15.07
2022-10-05T09:02:10.922Z,15.12
2022-10-05T09:03:25.053Z,15.16
2022-10-05T09:04:45.452Z,15.19
2022-10-05T09:06:19.934Z,15.22
2022-10-05T09:07:36.353Z,15.27
2022-10-05T09:08:56.570Z,15.31
2022-10-05T09:10:35.747Z,15.36
2022-10-05T09:11:43.167Z,15.40
2022-10-05T09:13:18.100Z,15.41
2022-10-05T09:14:56.421Z,15.43
2022-10-05T09:16:45.962Z,15.45
2022-10-05T09:18:09.478Z,15.44
2022-10-05T09:19:32.289Z,15.44
2022-10-05T09:20:53.211Z,15.44
2022-10-05T09:22:04.407Z,15.46
2022-10-05T09:23:39.408Z,15.48
2022-10-05T09:25:03.194Z,15.50
2022-10-05T09:26:11.726Z,15.51
2022-10-05T09:27:16.178Z,15.52
2022-10-05T09:28:48.988Z,15.53
2022-10-05T09:30:14.915Z,15.55
2022-10-05T09:32:00.467Z,15.57
2022-10-05T09:33:31.086Z,15.62
2022-10-05T09:34:51.186Z,15.64
2022-10-05T09:36:04.889Z,15.64
2022-10-05T09:37:21.737Z,15.67
2022-10-05T09:39:04.625Z,15.70
2022-10-05T09:40:24.829Z,15.71
2022-10-05T09:41:35.261Z,15.73
2022-10-05T09:42:49.530Z,15.76
2022-10-05T09:43:53.812Z,15.77
2022-10-05T09:45:23.563Z,15.79
2022-10-05T09:46:37.355Z,15.84
2022-10-05T09:47:50.800Z,15.89
2022-10-05T09:49:23.386Z,15.96
2022-10-05T09:50:43.822Z,16.03
2022-10-05T09:51:58.139Z,16.08
2022-10-05T09:53:10.142Z,16.12
2022-10-05T09:54:28.206Z,16.15
2022-10-05T09:55:30.467Z,16.16
2022-10-05T09:56:59.596Z,16.18
2022-10-05T09:58:14.072Z,16.21
2022-10-05T09:59:21.427Z,16.25
2022-10-05T10:00:40.127Z,16.30
2022-10-05T10:02:22.360Z,16.37
2022-10-05T10:03:53.426Z,16.43
2022-10-05T10:05:05.126Z,16.46
2022-10-05T10:06:12.461Z,16.50
2022-10-05T10:07:16.911Z,16.53
2022-10-05T10:08:30.670Z,16.58
2022-10-05T10:09:44.400Z,16.61
2022-10-05T10:11:01.634Z,16.60
2022-10-05T10:12:18.110Z,16.61
2022-10-05T10:14:02.047Z,16.60
2022-10-05T10:15:15.731Z,16.56
2022-10-05T10:16:39.152Z,16.56
2022-10-05T10:17:46.895Z,16.54
2022-10-05T10:19:09.998Z,16.53
2022-10-05T10:20:22.386Z,16.53
2022-10-05T10:22:01.549Z,16.54
2022-10-05T10:23:03.127Z,16.56
2022-10-05T10:24:57.192Z,16.57
2022-10-05T10:26:49.648Z,16.56
2022-10-05T10:28:18.740Z,16.55
2022-10-05T10:29:45.331Z,16.54
2022-10-05T10:31:22.812Z,16.56
2022-10-05T10:32:51.914Z,16.57
2022-10-05T10:34:15.663Z,16.59
2022-10-05T10:35:20.547Z,16.61
2022-10-05T10:36:34.316Z,16.63
2022-10-05T10:38:12.507Z,16.69
2022-10-05T10:39:44.703Z,16.77
2022-10-05T10:41:07.951Z,16.84
2022-10-05T10:42:38.782Z,16.90
2022-10-05T10:43:46.562Z,16.96
2022-10-05T10:44:48.287Z,17.01
2022-10-05T10:46:08.077Z,17.06
2022-10-05T10:47:27.930Z,17.12
2022-10-05T10:48:29.731Z,17.15
2022-10-05T10:49:57.443Z,17.17
2022-10-05T10:51:09.731Z,17.18
2022-10-05T10:52:48.486Z,17.21
2022-10-05T10:54:27.885Z,17.23
2022-10-05T10:55:33.452Z,17.24
2022-10-05T10:56:54.787Z,17.25
2022-10-05T10:58:16.444Z,17.28
2022-10-05T10:59:36.631Z,17.27
2022-10-05T11:01:06.023Z,17.25
2022-10-05T11:02:19.804Z,17.22
2022-10-05T11:03:33.391Z,17.20
2022-10-05T11:04:56.561Z,17.20
2022-10-05T11:06:42.438Z,17.24
2022-10-05T11:07:54.233Z,17.27
2022-10-05T11:09:40.407Z,17.29
2022-10-05T11:11:12.670Z,17.32
2022-10-05T11:12:34.547Z,17.34
2022-10-05T11:14:02.247Z,17.33
2022-10-05T11:15:24.674Z,17.31
2022-10-05T11:17:07.624Z,17.31
2022-10-05T11:18:27.664Z,17.31
2022-10-05T11:20:03.078Z,17.32
2022-10-05T11:21:31.103Z,17.30
2022-10-05T11:22:54.207Z,17.28
2022-10-05T11:24:18.541Z,17.29
2022-10-05T11:25:43.703Z,17.32
2022-10-05T11:27:19.794Z,17.34
2022-10-05T11:28:45.600Z,17.37
2022-10-05T11:30:01.243Z,17.40
2022-10-05T11:31:34.007Z,17.41
2022-10-05T11:33:01.422Z,17.40
2022-10-05T11:34:33.788Z,17.39
2022-10-05T11:35:53.365Z,17.36
2022-10-05T11:37:32.405Z,17.31
2022-10-05T11:39:19.953Z,17.26
2022-10-05T11:40:42.384Z,17.25
2022-10-05T11:42:06.521Z,17.26
2022-10-05T11:43:49.963Z,17.27
2022-10-05T11:44:54.290Z,17.31
2022-10-05T11:46:07.987Z,17.34
2022-10-05T11:47:33.242Z,17.38
2022-10-05T11:48:40.554Z,17.40
2022-10-05T11:49:42.177Z,17.41
2022-10-05T11:51:14.552Z,17.43
2022-10-05T11:52:39.776Z,17.46
2022-10-05T11:54:02.646Z,17.46
2022-10-05T11:55:27.252Z,17.47
2022-10-05T11:56:41.883Z,17.49
2022-10-05T11:57:52.340Z,17.50
2022-10-05T11:59:07.085Z,17.52
2022-10-05T12:00:15.371Z,17.57
2022-10-05T12:01:26.855Z,17.63
2022-10-05T12:02:34.505Z,17.68
2022-10-05T12:03:57.459Z,17.74
2022-10-05T12:05:22.183Z,17.81
2022-10-05T12:06:51.422Z,17.87
2022-10-05T12:08:14.742Z,17.93
2022-10-05T12:09:31.541Z,17.99
2022-10-05T12:10:48.162Z,18.03
2022-10-05T12:11:58.805Z,18.04
2022-10-05T12:13:03.459Z,18.04
2022-10-05T12:14:19.558Z,18.02
2022-10-05T12:15:44.109Z,18.01
2022-10-05T12:17:14.009Z,17.99
2022-10-05T12:18:30.538Z,17.96
2022-10-05T12:19:38.229Z,17.95
2022-10-05T12:20:45.645Z,17.96
2022-10-05T12:22:14.725Z,17.97
2022-10-05T12:23:34.090Z,17.94
2022-10-05T12:24:35.786Z,17.91
2022-10-05T12:25:47.729Z,17.88
2022-10-05T12:27:06.680Z,17.86
2022-10-05T12:28:17.461Z,17.85
2022-10-05T12:29:41.251Z,17.84
2022-10-05T12:31:18.075Z,17.84
2022-10-05T12:32:36.471Z,17.83
2022-10-05T12:34:08.399Z,17.80
2022-10-05T12:35:48.288Z,17.81
2022-10-05T12:37:09.266Z,17.81
2022-10-05T12:38:16.404Z,17.77
2022-10-05T12:39:55.430Z,17.77
2022-10-05T12:41:36.258Z,17.78
2022-10-05T12:42:59.167Z,17.81
2022-10-05T12:44:15.927Z,17.83
2022-10-05T12:45:53.297Z,17.84
2022-10-05T12:47:30.008Z,17.88
2022-10-05T12:48:55.511Z,17.91
2022-10-05T12:50:32.596Z,17.95
2022-10-05T12:51:54.301Z,18.06
2022-10-05T12:53:21.181Z,18.14
2022-10-05T12:55:00.135Z,18.20
2022-10-05T12:56:41.956Z,18.30
2022-10-05T12:57:54.872Z,18.41
2022-10-05T12:59:08.421Z,18.46
2022-10-05T13:00:22.635Z,18.52
2022-10-05T13:01:42.665Z,18.55
2022-10-05T13:02:44.418Z,18.58
2022-10-05T13:04:18.393Z,18.61
2022-10-05T13:05:32.288Z,18.66
2022-10-05T13:06:51.553Z,18.69
2022-10-05T13:08:29.439Z,18.74
2022-10-05T13:09:41.720Z,18.83
2022-10-05T13:11:11.392Z,18.87
2022-10-05T13:12:44.080Z,18.90
2022-10-05T13:13:54.533Z,18.86
2022-10-05T13:15:03.795Z,18.83
2022-10-05T13:16:14.953Z,18.77
2022-10-05T13:17:28.930Z,18.72
2022-10-05T13:18:55.435Z,18.66
2022-10-05T13:20:04.779Z,18.62
2022-10-05T13:21:22.267Z,18.58
2022-10-05T13:22:45.854Z,18.55
2022-10-05T13:24:06.595Z,18.51
2022-10-05T13:25:17.595Z,18.49
2022-10-05T13:26:27.496Z,18.49
2022-10-05T13:27:34.827Z,18.54
2022-10-05T13:28:47.645Z,18.60
2022-10-05T13:30:18.169Z,18.66
2022-10-05T13:31:26.110Z,18.78
2022-10-05T13:32:36.190Z,18.88
2022-10-05T13:34:07.329Z,18.98
2022-10-05T13:35:24.479Z,19.13
2022-10-05T13:36:46.180Z,19.29
2022-10-05T13:38:10.644Z,19.42
2022-10-05T13:39:27.963Z,19.51
2022-10-05T13:40:50.076Z,19.61
2022-10-05T13:42:17.128Z,19.70
2022-10-05T13:45:00.550Z,19.70
2022-10-05T13:46:10.226Z,19.68
2022-10-05T13:47:39.021Z,19.63
2022-10-05T13:48:56.398Z,19.61
2022-10-05T13:50:18.412Z,19.58
2022-10-05T13:51:28.745Z,19.55
2022-10-05T13:52:43.740Z,19.50
2022-10-05T13:54:11.405Z,19.47
2022-10-05T13:55:46.105Z,19.45
2022-10-05T13:56:55.134Z,19.43
2022-10-05T13:58:04.993Z,19.45
2022-10-05T13:59:42.714Z,19.48
2022-10-05T14:01:02.544Z,19.53
2022-10-05T14:02:16.834Z,19.50
2022-10-05T14:03:27.307Z,19.49
2022-10-05T14:04:43.480Z,19.49
2022-10-05T14:05:55.847Z,19.50
2022-10-05T14:07:21.263Z,19.52
2022-10-05T14:08:47.057Z,19.51
2022-10-05T14:09:51.757Z,19.44
2022-10-05T14:10:55.415Z,19.40
2022-10-05T14:12:02.994Z,19.38
2022-10-05T14:13:23.088Z,19.36
2022-10-05T14:14:27.693Z,19.30
2022-10-05T14:15:37.312Z,19.23
2022-10-05T14:16:51.815Z,19.16
2022-10-05T14:17:54.011Z,19.09
2022-10-05T14:19:04.803Z,19.01
2022-10-05T14:20:35.759Z,18.93
2022-10-05T14:21:53.356Z,18.84
2022-10-05T14:23:01.774Z,18.78
2022-10-05T14:24:44.620Z,18.71
2022-10-05T14:25:53.226Z,18.62
2022-10-05T14:26:58.859Z,18.54
2022-10-05T14:28:32.357Z,18.47
2022-10-05T14:29:37.413Z,18.35
2022-10-05T14:30:39.848Z,18.26
2022-10-05T14:31:58.709Z,18.17
2022-10-05T14:33:03.648Z,18.08
2022-10-05T14:34:26.948Z,18.02
2022-10-05T14:35:50.485Z,17.93
2022-10-05T14:36:59.415Z,17.85
2022-10-05T14:38:15.745Z,17.79
2022-10-05T14:39:24.957Z,17.74
2022-10-05T14:40:37.577Z,17.69
2022-10-05T14:41:48.238Z,17.64
2022-10-05T14:42:50.818Z,17.59
2022-10-05T14:44:02.081Z,17.56
2022-10-05T14:45:20.024Z,17.53
2022-10-05T14:46:27.815Z,17.48
2022-10-05T14:47:31.555Z,17.43
2022-10-05T14:48:44.746Z,17.39
2022-10-05T14:50:15.339Z,17.35
2022-10-05T14:51:31.408Z,17.30
2022-10-05T14:52:34.100Z,17.26
2022-10-05T14:53:40.381Z,17.22
2022-10-05T14:55:00.335Z,17.18
2022-10-05T14:56:31.730Z,17.16
2022-10-05T14:58:08.344Z,17.13
2022-10-05T14:59:42.793Z,17.11
2022-10-05T15:01:00.411Z,17.10
2022-10-05T15:02:24.409Z,17.09
2022-10-05T15:03:46.012Z,17.09
2022-10-05T15:05:16.464Z,17.06
2022-10-05T15:06:39.117Z,16.99
2022-10-05T15:07:45.187Z,16.94
2022-10-05T15:09:17.382Z,16.90
2022-10-05T15:10:31.851Z,16.83
2022-10-05T15:12:03.608Z,16.78
2022-10-05T15:13:15.128Z,16.73
2022-10-05T15:14:19.780Z,16.68
2022-10-05T15:15:41.690Z,16.64
2022-10-05T15:16:45.000Z,16.61
2022-10-05T15:17:54.351Z,16.58
2022-10-05T15:19:24.070Z,16.57
2022-10-05T15:20:38.571Z,16.55
2022-10-05T15:21:59.486Z,16.51
2022-10-05T15:23:24.393Z,16.46
2022-10-05T15:24:49.358Z,16.41
2022-10-05T15:26:07.082Z,16.36
2022-10-05T15:27:17.263Z,16.31
2022-10-05T15:28:39.879Z,16.29
2022-10-05T15:29:54.981Z,16.25
2022-10-05T15:31:03.881Z,16.20
2022-10-05T15:32:25.259Z,16.17
2022-10-05T15:33:35.645Z,16.13
2022-10-05T15:34:54.920Z,16.10
2022-10-05T15:36:22.494Z,16.07
2022-10-05T15:37:31.307Z,16.02
2022-10-05T15:38:43.785Z,16.00
2022-10-05T15:39:50.148Z,15.98
2022-10-05T15:41:18.443Z,15.95
2022-10-05T15:42:34.072Z,15.92
2022-10-05T15:43:57.882Z,15.89
2022-10-05T15:45:25.241Z,15.85
2022-10-05T15:46:49.880Z,15.80
2022-10-05T15:47:59.361Z,15.76
2022-10-05T15:49:42.863Z,15.73
2022-10-05T15:51:16.599Z,15.68
2022-10-05T15:52:40.031Z,15.64
2022-10-05T15:54:35.556Z,15.60
2022-10-05T15:56:00.963Z,15.56
2022-10-05T15:57:41.031Z,15.51
2022-10-05T15:58:48.144Z,15.46
2022-10-05T16:00:04.083Z,15.43
2022-10-05T16:01:10.869Z,15.40
2022-10-05T16:02:25.521Z,15.36
2022-10-05T16:03:43.046Z,15.34
2022-10-05T16:04:51.215Z,15.30
2022-10-05T16:06:33.044Z,15.28
2022-10-05T16:08:07.161Z,15.24
2022-10-05T16:09:45.557Z,15.21
2022-10-05T16:10:47.304Z,15.17
2022-10-05T16:12:19.874Z,15.14
2022-10-05T16:13:40.951Z,15.10
2022-10-05T16:15:15.551Z,15.07
2022-10-05T16:16:28.340Z,15.05
2022-10-05T16:17:49.280Z,15.02
2022-10-05T16:19:01.511Z,15.01
2022-10-05T16:20:26.143Z,15.00
2022-10-05T16:21:53.435Z,14.99
2022-10-05T16:23:25.538Z,14.97
2022-10-05T16:25:04.349Z,14.95
2022-10-05T16:26:07.193Z,14.92
2022-10-05T16:27:22.048Z,14.90
2022-10-05T16:29:17.302Z,14.88
2022-10-05T16:30:21.916Z,14.83
2022-10-05T16:31:48.446Z,14.81
2022-10-05T16:32:57.307Z,14.80
2022-10-05T16:34:08.725Z,14.78
2022-10-05T16:35:16.195Z,14.77
2022-10-05T16:36:43.928Z,14.76
2022-10-05T16:37:48.488Z,14.74
2022-10-05T16:39:00.721Z,14.72
2022-10-05T16:40:19.888Z,14.70
2022-10-05T16:41:53.697Z,14.69
2022-10-05T16:43:16.765Z,14.67
2022-10-05T16:44:46.100Z,14.64
2022-10-05T16:45:56.401Z,14.60
2022-10-05T16:47:27.427Z,14.57
2022-10-05T16:48:54.155Z,14.55
2022-10-05T16:50:20.886Z,14.54
2022-10-05T16:51:43.968Z,14.52
2022-10-05T16:52:54.338Z,14.50
2022-10-05T16:54:02.564Z,14.47
2022-10-05T16:55:13.355Z,14.45
2022-10-05T16:56:20.230Z,14.43
2022-10-05T16:57:34.503Z,14.41
2022-10-05T16:58:46.887Z,14.39
2022-10-05T16:59:54.397Z,14.38
2022-10-05T17:01:28.347Z,14.36
2022-10-05T17:02:40.651Z,14.35